DAL1480 KJFK-KATL
Flight info
| Callsign | DAL1480 |
|---|---|
| Flight time | 1h 56m |
| Altitude | 34000 |
| Route | RBV Q430 BYRDD J48 MOL FLASK OZZZI1 |
| Aircraft | B763/H-SDE3FGHIM3RWXY/LB1 |
Departure
| Time | 2026-05-01 10:55 |
|---|---|
| Airport | John F. Kennedy International Airport (KJFK) |
Arrival
| Time | 2026-05-01 12:51 |
|---|---|
| Airport | Hartsfield Jackson Atlanta International Airport (KATL) |
| Time | Latitude | Longitude | Altitude | Speed | Heading |
|---|---|---|---|---|---|
| 2026-05-01 10:25 | 40.63845 | -73.78039 | 24 ft | 0 kts | 263° |
| 2026-05-01 10:44 | 40.63847 | -73.78020 | 24 ft | 2 kts | 263° |
| 2026-05-01 10:45 | 40.63849 | -73.78001 | 24 ft | 2 kts | 263° |
| 2026-05-01 10:45 | 40.63850 | -73.77982 | 24 ft | 2 kts | 263° |
| 2026-05-01 10:45 | 40.63851 | -73.77969 | 24 ft | 2 kts | 258° |
| 2026-05-01 10:45 | 40.63857 | -73.77952 | 24 ft | 2 kts | 230° |
| 2026-05-01 10:46 | 40.63868 | -73.77939 | 24 ft | 2 kts | 207° |
| 2026-05-01 10:46 | 40.63882 | -73.77933 | 24 ft | 2 kts | 184° |
| 2026-05-01 10:46 | 40.63891 | -73.77933 | 24 ft | 1 kts | 172° |
| 2026-05-01 10:46 | 40.63892 | -73.77933 | 24 ft | 0 kts | 172° |
| 2026-05-01 10:48 | 40.63886 | -73.77932 | 24 ft | 3 kts | 172° |
| 2026-05-01 10:49 | 40.63847 | -73.77927 | 24 ft | 7 kts | 174° |
| 2026-05-01 10:49 | 40.63787 | -73.77918 | 24 ft | 9 kts | 173° |
| 2026-05-01 10:49 | 40.63710 | -73.77905 | 24 ft | 12 kts | 173° |
| 2026-05-01 10:49 | 40.63634 | -73.77892 | 24 ft | 7 kts | 171° |
| 2026-05-01 10:50 | 40.63579 | -73.77867 | 24 ft | 9 kts | 148° |
| 2026-05-01 10:50 | 40.63550 | -73.77821 | 24 ft | 5 kts | 121° |
| 2026-05-01 10:50 | 40.63539 | -73.77805 | 24 ft | 1 kts | 155° |
| 2026-05-01 10:50 | 40.63524 | -73.77812 | 24 ft | 5 kts | 214° |
| 2026-05-01 10:51 | 40.63473 | -73.77854 | 24 ft | 12 kts | 211° |
| 2026-05-01 10:51 | 40.63399 | -73.77914 | 24 ft | 5 kts | 211° |
| 2026-05-01 10:51 | 40.63359 | -73.77917 | 24 ft | 6 kts | 143° |
| 2026-05-01 10:51 | 40.63331 | -73.77852 | 24 ft | 11 kts | 121° |
| 2026-05-01 10:52 | 40.63279 | -73.77742 | 24 ft | 17 kts | 121° |
| 2026-05-01 10:52 | 40.63208 | -73.77586 | 24 ft | 22 kts | 121° |
| 2026-05-01 10:52 | 40.63118 | -73.77387 | 24 ft | 27 kts | 120° |
| 2026-05-01 10:52 | 40.63023 | -73.77178 | 24 ft | 14 kts | 121° |
| 2026-05-01 10:53 | 40.62987 | -73.77103 | 24 ft | 4 kts | 132° |
| 2026-05-01 10:53 | 40.62943 | -73.77096 | 24 ft | 10 kts | 194° |
| 2026-05-01 10:53 | 40.62859 | -73.77154 | 24 ft | 13 kts | 211° |
| 2026-05-01 10:53 | 40.62819 | -73.77213 | 24 ft | 7 kts | 270° |
| 2026-05-01 10:54 | 40.62827 | -73.77239 | 24 ft | 0 kts | 302° |
| 2026-05-01 10:54 | 40.62842 | -73.77269 | 24 ft | 19 kts | 301° |
| 2026-05-01 10:54 | 40.62997 | -73.77615 | 24 ft | 68 kts | 300° |
| 2026-05-01 10:54 | 40.63329 | -73.78344 | 25 ft | 113 kts | 301° |
| 2026-05-01 10:55 | 40.63801 | -73.79388 | 82 ft | 149 kts | 301° |
| 2026-05-01 10:55 | 40.64334 | -73.80644 | 468 ft | 164 kts | 288° |
| 2026-05-01 10:55 | 40.64206 | -73.82127 | 1091 ft | 175 kts | 242° |
| 2026-05-01 10:55 | 40.63311 | -73.83228 | 1747 ft | 181 kts | 223° |
| 2026-05-01 10:56 | 40.62345 | -73.84409 | 2005 ft | 201 kts | 234° |
| 2026-05-01 10:56 | 40.61406 | -73.85921 | 2299 ft | 225 kts | 238° |
| 2026-05-01 10:56 | 40.60489 | -73.87568 | 3221 ft | 221 kts | 240° |
| 2026-05-01 10:56 | 40.59564 | -73.89202 | 3824 ft | 237 kts | 232° |
| 2026-05-01 10:57 | 40.58326 | -73.90834 | 4194 ft | 264 kts | 229° |
| 2026-05-01 10:57 | 40.57039 | -73.92551 | 5088 ft | 268 kts | 229° |
| 2026-05-01 10:57 | 40.55558 | -73.94074 | 6066 ft | 274 kts | 216° |
| 2026-05-01 10:57 | 40.53960 | -73.95373 | 7031 ft | 276 kts | 217° |
| 2026-05-01 10:58 | 40.52328 | -73.96722 | 8064 ft | 276 kts | 217° |
| 2026-05-01 10:58 | 40.50705 | -73.98054 | 9013 ft | 279 kts | 217° |
| 2026-05-01 10:58 | 40.49069 | -73.99392 | 9999 ft | 280 kts | 217° |
| 2026-05-01 10:58 | 40.47389 | -74.00768 | 10656 ft | 295 kts | 217° |
| 2026-05-01 10:59 | 40.45569 | -74.02264 | 10864 ft | 325 kts | 217° |
| 2026-05-01 10:59 | 40.43538 | -74.03921 | 11083 ft | 355 kts | 217° |
| 2026-05-01 10:59 | 40.41409 | -74.05650 | 11776 ft | 368 kts | 216° |
| 2026-05-01 10:59 | 40.39244 | -74.07406 | 12851 ft | 368 kts | 217° |
| 2026-05-01 11:00 | 40.37053 | -74.09185 | 13775 ft | 373 kts | 217° |
| 2026-05-01 11:00 | 40.34853 | -74.10970 | 14725 ft | 375 kts | 217° |
| 2026-05-01 11:00 | 40.32633 | -74.12772 | 15662 ft | 377 kts | 217° |
| 2026-05-01 11:00 | 40.30387 | -74.14593 | 16444 ft | 382 kts | 217° |
| 2026-05-01 11:01 | 40.28159 | -74.16419 | 17299 ft | 383 kts | 219° |
| 2026-05-01 11:01 | 40.26106 | -74.18623 | 18087 ft | 382 kts | 231° |
| 2026-05-01 11:01 | 40.24461 | -74.21308 | 19016 ft | 378 kts | 241° |
| 2026-05-01 11:01 | 40.23278 | -74.24318 | 19865 ft | 375 kts | 251° |
| 2026-05-01 11:02 | 40.22570 | -74.27613 | 20653 ft | 377 kts | 261° |
| 2026-05-01 11:02 | 40.22176 | -74.30977 | 21484 ft | 378 kts | 262° |
| 2026-05-01 11:02 | 40.21782 | -74.34362 | 22188 ft | 382 kts | 263° |
| 2026-05-01 11:02 | 40.21417 | -74.37819 | 22870 ft | 385 kts | 263° |
| 2026-05-01 11:03 | 40.21059 | -74.41303 | 23568 ft | 388 kts | 263° |
| 2026-05-01 11:03 | 40.20711 | -74.44786 | 24179 ft | 391 kts | 263° |
| 2026-05-01 11:03 | 40.20363 | -74.48305 | 24738 ft | 395 kts | 263° |
| 2026-05-01 11:03 | 40.20053 | -74.51865 | 25399 ft | 396 kts | 265° |
| 2026-05-01 11:04 | 40.19774 | -74.55480 | 25852 ft | 402 kts | 265° |
| 2026-05-01 11:04 | 40.19491 | -74.59100 | 26444 ft | 404 kts | 265° |
| 2026-05-01 11:04 | 40.19201 | -74.62774 | 26955 ft | 407 kts | 265° |
| 2026-05-01 11:04 | 40.18913 | -74.66431 | 27455 ft | 409 kts | 265° |
| 2026-05-01 11:05 | 40.18619 | -74.70156 | 27960 ft | 412 kts | 264° |
| 2026-05-01 11:05 | 40.18322 | -74.73891 | 28350 ft | 416 kts | 265° |
| 2026-05-01 11:05 | 40.18024 | -74.77628 | 28845 ft | 417 kts | 265° |
| 2026-05-01 11:05 | 40.17720 | -74.81432 | 29190 ft | 420 kts | 265° |
| 2026-05-01 11:06 | 40.17419 | -74.85159 | 29811 ft | 416 kts | 265° |
| 2026-05-01 11:06 | 40.17117 | -74.88907 | 30334 ft | 414 kts | 265° |
| 2026-05-01 11:06 | 40.16812 | -74.92665 | 30804 ft | 412 kts | 265° |
| 2026-05-01 11:07 | 40.16208 | -75.00073 | 31635 ft | 410 kts | 265° |
| 2026-05-01 11:07 | 40.15904 | -75.03773 | 32024 ft | 408 kts | 265° |
| 2026-05-01 11:07 | 40.15604 | -75.07420 | 32452 ft | 405 kts | 265° |
| 2026-05-01 11:07 | 40.15303 | -75.11050 | 32859 ft | 402 kts | 265° |
| 2026-05-01 11:08 | 40.15004 | -75.14671 | 33236 ft | 401 kts | 265° |
| 2026-05-01 11:08 | 40.14703 | -75.18285 | 33611 ft | 399 kts | 265° |
| 2026-05-01 11:08 | 40.14104 | -75.25430 | 34334 ft | 399 kts | 265° |
| 2026-05-01 11:09 | 40.13797 | -75.29071 | 34703 ft | 398 kts | 265° |
| 2026-05-01 11:09 | 40.13496 | -75.32635 | 35025 ft | 399 kts | 265° |
| 2026-05-01 11:09 | 40.13190 | -75.36234 | 35324 ft | 399 kts | 265° |
| 2026-05-01 11:10 | 40.12575 | -75.43433 | 35920 ft | 400 kts | 265° |
| 2026-05-01 11:10 | 40.12264 | -75.47052 | 36170 ft | 400 kts | 265° |
| 2026-05-01 11:10 | 40.11952 | -75.50671 | 36434 ft | 401 kts | 265° |
| 2026-05-01 11:10 | 40.11641 | -75.54267 | 36672 ft | 402 kts | 265° |
| 2026-05-01 11:11 | 40.11326 | -75.57893 | 36884 ft | 403 kts | 265° |
| 2026-05-01 11:11 | 40.11008 | -75.61533 | 37129 ft | 403 kts | 265° |
| 2026-05-01 11:11 | 40.10694 | -75.65127 | 37414 ft | 401 kts | 264° |
| 2026-05-01 11:11 | 40.10373 | -75.68779 | 37602 ft | 403 kts | 264° |
| 2026-05-01 11:12 | 40.10053 | -75.72405 | 37733 ft | 406 kts | 264° |
| 2026-05-01 11:12 | 40.09732 | -75.76053 | 38015 ft | 402 kts | 264° |
| 2026-05-01 11:12 | 40.08255 | -75.83108 | 38041 ft | 410 kts | 246° |
| 2026-05-01 11:13 | 40.05254 | -75.89505 | 38018 ft | 413 kts | 242° |
| 2026-05-01 11:13 | 40.02134 | -75.95767 | 38008 ft | 410 kts | 242° |
| 2026-05-01 11:14 | 39.99007 | -76.01959 | 38009 ft | 412 kts | 241° |
| 2026-05-01 11:14 | 39.95841 | -76.08186 | 38026 ft | 413 kts | 241° |
| 2026-05-01 11:15 | 39.92688 | -76.14370 | 38020 ft | 409 kts | 241° |
| 2026-05-01 11:15 | 39.89526 | -76.20558 | 38022 ft | 410 kts | 242° |
| 2026-05-01 11:16 | 39.86374 | -76.26712 | 38020 ft | 410 kts | 242° |
| 2026-05-01 11:16 | 39.83203 | -76.32890 | 38021 ft | 408 kts | 241° |
| 2026-05-01 11:17 | 39.80069 | -76.38986 | 38021 ft | 408 kts | 242° |
| 2026-05-01 11:17 | 39.76898 | -76.45141 | 38031 ft | 408 kts | 242° |
| 2026-05-01 11:18 | 39.73770 | -76.51200 | 38001 ft | 404 kts | 242° |
| 2026-05-01 11:18 | 39.70644 | -76.57245 | 38016 ft | 405 kts | 242° |
| 2026-05-01 11:19 | 39.67504 | -76.63303 | 37997 ft | 406 kts | 242° |
| 2026-05-01 11:19 | 39.64366 | -76.69347 | 38026 ft | 404 kts | 241° |
| 2026-05-01 11:20 | 39.61223 | -76.75392 | 38021 ft | 403 kts | 241° |
| 2026-05-01 11:20 | 39.58085 | -76.81409 | 38037 ft | 404 kts | 242° |
| 2026-05-01 11:21 | 39.54944 | -76.87427 | 38029 ft | 401 kts | 242° |
| 2026-05-01 11:21 | 39.51825 | -76.93388 | 38008 ft | 399 kts | 242° |
| 2026-05-01 11:22 | 39.48290 | -76.98959 | 38035 ft | 413 kts | 229° |
| 2026-05-01 11:22 | 39.43854 | -77.03732 | 38023 ft | 417 kts | 227° |
| 2026-05-01 11:23 | 39.39365 | -77.08494 | 38031 ft | 414 kts | 227° |
| 2026-05-01 11:23 | 39.34952 | -77.13139 | 38016 ft | 411 kts | 228° |
| 2026-05-01 11:24 | 39.30533 | -77.17781 | 38017 ft | 410 kts | 227° |
| 2026-05-01 11:25 | 39.23881 | -77.24747 | 38028 ft | 412 kts | 228° |
| 2026-05-01 11:25 | 39.17233 | -77.31686 | 38025 ft | 410 kts | 228° |
| 2026-05-01 11:26 | 39.10578 | -77.38618 | 38021 ft | 408 kts | 228° |
| 2026-05-01 11:27 | 39.06200 | -77.43169 | 38049 ft | 408 kts | 228° |
| 2026-05-01 11:27 | 39.01759 | -77.47776 | 38041 ft | 409 kts | 229° |
| 2026-05-01 11:28 | 38.97345 | -77.52348 | 38027 ft | 408 kts | 229° |
| 2026-05-01 11:28 | 38.92929 | -77.56917 | 38027 ft | 408 kts | 229° |
| 2026-05-01 11:29 | 38.86306 | -77.63749 | 38015 ft | 405 kts | 229° |
| 2026-05-01 11:30 | 38.79729 | -77.70525 | 38053 ft | 406 kts | 228° |
| 2026-05-01 11:30 | 38.75332 | -77.75040 | 38068 ft | 409 kts | 229° |
| 2026-05-01 11:31 | 38.70895 | -77.79590 | 38047 ft | 403 kts | 229° |
| 2026-05-01 11:31 | 38.66570 | -77.84017 | 38060 ft | 403 kts | 229° |
| 2026-05-01 11:32 | 38.62655 | -77.89017 | 38055 ft | 389 kts | 242° |
| 2026-05-01 11:32 | 38.59432 | -77.94527 | 38051 ft | 386 kts | 241° |
| 2026-05-01 11:33 | 38.56220 | -77.99986 | 38028 ft | 383 kts | 242° |
| 2026-05-01 11:33 | 38.53023 | -78.05424 | 38044 ft | 386 kts | 242° |
| 2026-05-01 11:34 | 38.49817 | -78.10859 | 38042 ft | 383 kts | 242° |
| 2026-05-01 11:34 | 38.46622 | -78.16276 | 38037 ft | 383 kts | 242° |
| 2026-05-01 11:35 | 38.43399 | -78.21728 | 38031 ft | 383 kts | 242° |
| 2026-05-01 11:35 | 38.40194 | -78.27142 | 38046 ft | 384 kts | 242° |
| 2026-05-01 11:36 | 38.36995 | -78.32532 | 38047 ft | 381 kts | 242° |
| 2026-05-01 11:36 | 38.33815 | -78.37881 | 38035 ft | 380 kts | 243° |
| 2026-05-01 11:37 | 38.30608 | -78.43272 | 38040 ft | 383 kts | 242° |
| 2026-05-01 11:37 | 38.27419 | -78.48619 | 38035 ft | 379 kts | 242° |
| 2026-05-01 11:38 | 38.24200 | -78.54012 | 38045 ft | 383 kts | 242° |
| 2026-05-01 11:38 | 38.20995 | -78.59369 | 38034 ft | 380 kts | 242° |
| 2026-05-01 11:39 | 38.17809 | -78.64686 | 38046 ft | 380 kts | 243° |
| 2026-05-01 11:39 | 38.14583 | -78.70068 | 38065 ft | 382 kts | 241° |
| 2026-05-01 11:40 | 38.11381 | -78.75388 | 38052 ft | 376 kts | 242° |
| 2026-05-01 11:40 | 38.08198 | -78.80679 | 38054 ft | 380 kts | 242° |
| 2026-05-01 11:41 | 38.04996 | -78.85989 | 38056 ft | 378 kts | 242° |
| 2026-05-01 11:41 | 38.01818 | -78.91252 | 38049 ft | 378 kts | 241° |
| 2026-05-01 11:42 | 37.98613 | -78.96548 | 38044 ft | 375 kts | 242° |
| 2026-05-01 11:42 | 37.95433 | -79.01798 | 38035 ft | 376 kts | 242° |
| 2026-05-01 11:43 | 37.92252 | -79.07038 | 38039 ft | 378 kts | 242° |
| 2026-05-01 11:43 | 37.88911 | -79.12206 | 38055 ft | 385 kts | 238° |
| 2026-05-01 11:44 | 37.83572 | -79.19677 | 38023 ft | 379 kts | 239° |
| 2026-05-01 11:44 | 37.80009 | -79.24648 | 38036 ft | 383 kts | 239° |
| 2026-05-01 11:45 | 37.76435 | -79.29613 | 38026 ft | 381 kts | 238° |
| 2026-05-01 11:45 | 37.72863 | -79.34568 | 38024 ft | 380 kts | 238° |
| 2026-05-01 11:46 | 37.69305 | -79.39497 | 38035 ft | 381 kts | 238° |
| 2026-05-01 11:46 | 37.65743 | -79.44420 | 38029 ft | 380 kts | 238° |
| 2026-05-01 11:47 | 37.62204 | -79.49302 | 38019 ft | 378 kts | 239° |
| 2026-05-01 11:47 | 37.58646 | -79.54213 | 38017 ft | 380 kts | 238° |
| 2026-05-01 11:48 | 37.55049 | -79.59161 | 38016 ft | 381 kts | 238° |
| 2026-05-01 11:48 | 37.51486 | -79.64055 | 38020 ft | 377 kts | 238° |
| 2026-05-01 11:49 | 37.47932 | -79.68934 | 38094 ft | 382 kts | 238° |
| 2026-05-01 11:49 | 37.44374 | -79.73802 | 38065 ft | 378 kts | 239° |
| 2026-05-01 11:50 | 37.40796 | -79.78701 | 38064 ft | 382 kts | 239° |
| 2026-05-01 11:50 | 37.37174 | -79.83648 | 38057 ft | 381 kts | 238° |
| 2026-05-01 11:51 | 37.33630 | -79.88477 | 38054 ft | 377 kts | 239° |
| 2026-05-01 11:51 | 37.30052 | -79.93353 | 38062 ft | 380 kts | 239° |
| 2026-05-01 11:52 | 37.26454 | -79.98244 | 38070 ft | 378 kts | 238° |
| 2026-05-01 11:52 | 37.22880 | -80.03097 | 38055 ft | 380 kts | 238° |
| 2026-05-01 11:53 | 37.19309 | -80.07934 | 38060 ft | 377 kts | 239° |
| 2026-05-01 11:53 | 37.15748 | -80.12758 | 38053 ft | 379 kts | 239° |
| 2026-05-01 11:54 | 37.12152 | -80.17617 | 38040 ft | 378 kts | 239° |
| 2026-05-01 11:54 | 37.08575 | -80.22444 | 38046 ft | 380 kts | 239° |
| 2026-05-01 11:55 | 37.04995 | -80.27267 | 38035 ft | 378 kts | 238° |
| 2026-05-01 11:55 | 37.01399 | -80.32087 | 38043 ft | 380 kts | 238° |
| 2026-05-01 11:56 | 36.97704 | -80.36822 | 38027 ft | 382 kts | 238° |
| 2026-05-01 11:56 | 36.93995 | -80.41571 | 38023 ft | 380 kts | 237° |
| 2026-05-01 11:57 | 36.90911 | -80.45514 | 38028 ft | 382 kts | 238° |
| 2026-05-01 11:57 | 36.86578 | -80.51046 | 38014 ft | 380 kts | 238° |
| 2026-05-01 11:58 | 36.82884 | -80.55756 | 38007 ft | 380 kts | 237° |
| 2026-05-01 11:59 | 36.77348 | -80.62803 | 38021 ft | 381 kts | 237° |
| 2026-05-01 11:59 | 36.73629 | -80.67529 | 38051 ft | 382 kts | 237° |
| 2026-05-01 12:00 | 36.68074 | -80.74564 | 38046 ft | 380 kts | 237° |
| 2026-05-01 12:01 | 36.62489 | -80.81635 | 38041 ft | 384 kts | 237° |
| 2026-05-01 12:01 | 36.58741 | -80.86363 | 38035 ft | 380 kts | 237° |
| 2026-05-01 12:02 | 36.55042 | -80.91033 | 38038 ft | 382 kts | 237° |
| 2026-05-01 12:02 | 36.51310 | -80.95731 | 38030 ft | 381 kts | 237° |
| 2026-05-01 12:03 | 36.47599 | -81.00391 | 38030 ft | 376 kts | 237° |
| 2026-05-01 12:03 | 36.43917 | -81.05022 | 38048 ft | 380 kts | 237° |
| 2026-05-01 12:04 | 36.40229 | -81.09639 | 38054 ft | 377 kts | 237° |
| 2026-05-01 12:04 | 36.36504 | -81.14307 | 38057 ft | 379 kts | 237° |
| 2026-05-01 12:05 | 36.32797 | -81.18941 | 38065 ft | 379 kts | 237° |
| 2026-05-01 12:05 | 36.27242 | -81.25883 | 38057 ft | 379 kts | 237° |
| 2026-05-01 12:06 | 36.23521 | -81.30524 | 38044 ft | 378 kts | 237° |
| 2026-05-01 12:06 | 36.20421 | -81.34391 | 38036 ft | 379 kts | 237° |
| 2026-05-01 12:07 | 36.16096 | -81.39773 | 38026 ft | 382 kts | 237° |
| 2026-05-01 12:07 | 36.12358 | -81.44417 | 38028 ft | 381 kts | 237° |
| 2026-05-01 12:08 | 36.08612 | -81.49064 | 38028 ft | 382 kts | 237° |
| 2026-05-01 12:08 | 36.04863 | -81.53708 | 38031 ft | 382 kts | 237° |
| 2026-05-01 12:09 | 36.01767 | -81.57537 | 38037 ft | 379 kts | 237° |
| 2026-05-01 12:09 | 35.97400 | -81.62936 | 38045 ft | 382 kts | 237° |
| 2026-05-01 12:10 | 35.91796 | -81.69847 | 38065 ft | 382 kts | 237° |
| 2026-05-01 12:11 | 35.86778 | -81.76024 | 38063 ft | 380 kts | 237° |
| 2026-05-01 12:11 | 35.82402 | -81.81402 | 38063 ft | 381 kts | 236° |
| 2026-05-01 12:12 | 35.78648 | -81.85991 | 38059 ft | 380 kts | 237° |
| 2026-05-01 12:12 | 35.75476 | -81.89796 | 38056 ft | 382 kts | 236° |
| 2026-05-01 12:13 | 35.71692 | -81.94320 | 38044 ft | 379 kts | 237° |
| 2026-05-01 12:13 | 35.67283 | -81.99598 | 38056 ft | 380 kts | 236° |
| 2026-05-01 12:14 | 35.64121 | -82.03374 | 38056 ft | 381 kts | 236° |
| 2026-05-01 12:14 | 35.59681 | -82.08665 | 38031 ft | 379 kts | 236° |
| 2026-05-01 12:15 | 35.55866 | -82.13211 | 38045 ft | 382 kts | 236° |
| 2026-05-01 12:15 | 35.52691 | -82.16983 | 38035 ft | 378 kts | 236° |
| 2026-05-01 12:16 | 35.48921 | -82.21461 | 38037 ft | 377 kts | 236° |
| 2026-05-01 12:16 | 35.44504 | -82.26701 | 38035 ft | 382 kts | 237° |
| 2026-05-01 12:17 | 35.41342 | -82.30507 | 38019 ft | 379 kts | 237° |
| 2026-05-01 12:17 | 35.37033 | -82.35875 | 38033 ft | 379 kts | 237° |
| 2026-05-01 12:18 | 35.33977 | -82.39668 | 38023 ft | 375 kts | 238° |
| 2026-05-01 12:18 | 35.29695 | -82.44984 | 38025 ft | 379 kts | 238° |
| 2026-05-01 12:19 | 35.26589 | -82.48833 | 38029 ft | 379 kts | 237° |
| 2026-05-01 12:19 | 35.22307 | -82.54126 | 38030 ft | 375 kts | 237° |
| 2026-05-01 12:20 | 35.19244 | -82.57912 | 38036 ft | 377 kts | 237° |
| 2026-05-01 12:20 | 35.15547 | -82.62453 | 38029 ft | 377 kts | 237° |
| 2026-05-01 12:21 | 35.11778 | -82.66933 | 38066 ft | 379 kts | 236° |
| 2026-05-01 12:21 | 35.07355 | -82.72184 | 38056 ft | 380 kts | 236° |
| 2026-05-01 12:22 | 35.04215 | -82.75906 | 38057 ft | 379 kts | 236° |
| 2026-05-01 12:22 | 35.00437 | -82.80381 | 38048 ft | 377 kts | 236° |
| 2026-05-01 12:23 | 34.96013 | -82.85618 | 38052 ft | 380 kts | 236° |
| 2026-05-01 12:23 | 34.92224 | -82.90055 | 38045 ft | 375 kts | 236° |
| 2026-05-01 12:24 | 34.89067 | -82.93720 | 38054 ft | 379 kts | 236° |
| 2026-05-01 12:24 | 34.85274 | -82.98103 | 38041 ft | 371 kts | 235° |
| 2026-05-01 12:25 | 34.83401 | -83.00272 | 37823 ft | 371 kts | 236° |
| 2026-05-01 12:25 | 34.79660 | -83.04599 | 37212 ft | 370 kts | 236° |
| 2026-05-01 12:25 | 34.77799 | -83.06746 | 36913 ft | 370 kts | 236° |
| 2026-05-01 12:26 | 34.75920 | -83.08916 | 36620 ft | 371 kts | 235° |
| 2026-05-01 12:26 | 34.71540 | -83.13967 | 35934 ft | 374 kts | 235° |
| 2026-05-01 12:26 | 34.70274 | -83.15420 | 35725 ft | 373 kts | 235° |
| 2026-05-01 12:27 | 34.68395 | -83.17584 | 35388 ft | 374 kts | 235° |
| 2026-05-01 12:27 | 34.64584 | -83.21968 | 34479 ft | 382 kts | 234° |
| 2026-05-01 12:28 | 34.60722 | -83.26397 | 32712 ft | 378 kts | 234° |
| 2026-05-01 12:28 | 34.58796 | -83.28609 | 31934 ft | 383 kts | 234° |
| 2026-05-01 12:28 | 34.54691 | -83.32975 | 30247 ft | 407 kts | 229° |
| 2026-05-01 12:29 | 34.52524 | -83.35111 | 29335 ft | 393 kts | 230° |
| 2026-05-01 12:29 | 34.50460 | -83.37147 | 28537 ft | 380 kts | 230° |
| 2026-05-01 12:29 | 34.45878 | -83.41720 | 26559 ft | 356 kts | 230° |
| 2026-05-01 12:30 | 34.42757 | -83.44848 | 25060 ft | 344 kts | 230° |
| 2026-05-01 12:30 | 34.40937 | -83.46671 | 24171 ft | 337 kts | 229° |
| 2026-05-01 12:30 | 34.39150 | -83.48463 | 23269 ft | 332 kts | 230° |
| 2026-05-01 12:31 | 34.37397 | -83.50220 | 22325 ft | 328 kts | 229° |
| 2026-05-01 12:31 | 34.35668 | -83.51954 | 21455 ft | 326 kts | 229° |
| 2026-05-01 12:31 | 34.33904 | -83.53724 | 21051 ft | 343 kts | 229° |
| 2026-05-01 12:31 | 34.31972 | -83.55679 | 20353 ft | 377 kts | 227° |
| 2026-05-01 12:32 | 34.29951 | -83.57686 | 19638 ft | 378 kts | 227° |
| 2026-05-01 12:32 | 34.25922 | -83.61695 | 18225 ft | 372 kts | 226° |
| 2026-05-01 12:32 | 34.23942 | -83.63662 | 17801 ft | 362 kts | 226° |
| 2026-05-01 12:33 | 34.22018 | -83.65578 | 17391 ft | 358 kts | 225° |
| 2026-05-01 12:33 | 34.20094 | -83.67496 | 17025 ft | 359 kts | 225° |
| 2026-05-01 12:33 | 34.18138 | -83.69447 | 16650 ft | 362 kts | 225° |
| 2026-05-01 12:33 | 34.16199 | -83.71375 | 16258 ft | 362 kts | 225° |
| 2026-05-01 12:34 | 34.14258 | -83.73303 | 15855 ft | 360 kts | 224° |
| 2026-05-01 12:34 | 34.12356 | -83.75191 | 15459 ft | 357 kts | 224° |
| 2026-05-01 12:34 | 34.10437 | -83.77097 | 15075 ft | 357 kts | 224° |
| 2026-05-01 12:34 | 34.08503 | -83.79016 | 14678 ft | 358 kts | 223° |
| 2026-05-01 12:35 | 34.06574 | -83.80930 | 14274 ft | 357 kts | 223° |
| 2026-05-01 12:35 | 34.04673 | -83.82810 | 13875 ft | 354 kts | 223° |
| 2026-05-01 12:35 | 34.02770 | -83.84696 | 13488 ft | 354 kts | 223° |
| 2026-05-01 12:35 | 34.00205 | -83.87234 | 12961 ft | 354 kts | 223° |
| 2026-05-01 12:36 | 33.98950 | -83.88475 | 12695 ft | 354 kts | 223° |
| 2026-05-01 12:36 | 33.97041 | -83.90362 | 12286 ft | 352 kts | 223° |
| 2026-05-01 12:36 | 33.95159 | -83.92220 | 11903 ft | 350 kts | 223° |
| 2026-05-01 12:36 | 33.93269 | -83.94087 | 11525 ft | 350 kts | 223° |
| 2026-05-01 12:37 | 33.91394 | -83.95937 | 11147 ft | 350 kts | 223° |
| 2026-05-01 12:37 | 33.89500 | -83.97805 | 10728 ft | 349 kts | 223° |
| 2026-05-01 12:37 | 33.87654 | -83.99621 | 10435 ft | 333 kts | 223° |
| 2026-05-01 12:37 | 33.85931 | -84.01314 | 10361 ft | 309 kts | 223° |
| 2026-05-01 12:38 | 33.84294 | -84.02926 | 10339 ft | 293 kts | 223° |
| 2026-05-01 12:38 | 33.82748 | -84.04447 | 10317 ft | 280 kts | 224° |
| 2026-05-01 12:38 | 33.81265 | -84.05907 | 10305 ft | 275 kts | 224° |
| 2026-05-01 12:38 | 33.79779 | -84.07372 | 10305 ft | 278 kts | 224° |
| 2026-05-01 12:39 | 33.78265 | -84.08862 | 10313 ft | 282 kts | 224° |
| 2026-05-01 12:39 | 33.76740 | -84.10361 | 10212 ft | 284 kts | 224° |
| 2026-05-01 12:39 | 33.75189 | -84.11886 | 9874 ft | 286 kts | 224° |
| 2026-05-01 12:39 | 33.73976 | -84.13644 | 9783 ft | 267 kts | 249° |
| 2026-05-01 12:40 | 33.73562 | -84.15760 | 9819 ft | 262 kts | 267° |
| 2026-05-01 12:40 | 33.73454 | -84.17977 | 9803 ft | 269 kts | 269° |
| 2026-05-01 12:40 | 33.73380 | -84.20231 | 9796 ft | 268 kts | 270° |
| 2026-05-01 12:40 | 33.73341 | -84.22475 | 9795 ft | 267 kts | 270° |
| 2026-05-01 12:41 | 33.73321 | -84.24689 | 9798 ft | 267 kts | 270° |
| 2026-05-01 12:41 | 33.73311 | -84.26914 | 9797 ft | 267 kts | 271° |
| 2026-05-01 12:41 | 33.73304 | -84.29102 | 9731 ft | 268 kts | 271° |
| 2026-05-01 12:41 | 33.73301 | -84.31310 | 9744 ft | 266 kts | 271° |
| 2026-05-01 12:42 | 33.73299 | -84.33539 | 9745 ft | 266 kts | 271° |
| 2026-05-01 12:42 | 33.73298 | -84.35760 | 9749 ft | 268 kts | 271° |
| 2026-05-01 12:42 | 33.73296 | -84.38006 | 9746 ft | 267 kts | 271° |
| 2026-05-01 12:42 | 33.73295 | -84.40234 | 9746 ft | 267 kts | 271° |
| 2026-05-01 12:43 | 33.73293 | -84.42483 | 9749 ft | 266 kts | 271° |
| 2026-05-01 12:43 | 33.73293 | -84.44710 | 9729 ft | 268 kts | 271° |
| 2026-05-01 12:43 | 33.73294 | -84.46931 | 9553 ft | 271 kts | 271° |
| 2026-05-01 12:43 | 33.73294 | -84.49201 | 9249 ft | 271 kts | 271° |
| 2026-05-01 12:44 | 33.73293 | -84.51466 | 8753 ft | 275 kts | 271° |
| 2026-05-01 12:44 | 33.73293 | -84.53783 | 8251 ft | 278 kts | 271° |
| 2026-05-01 12:44 | 33.73288 | -84.58136 | 7234 ft | 271 kts | 271° |
| 2026-05-01 12:45 | 33.73279 | -84.62624 | 5869 ft | 271 kts | 271° |
| 2026-05-01 12:45 | 33.73269 | -84.64876 | 5124 ft | 274 kts | 269° |
| 2026-05-01 12:45 | 33.72804 | -84.67104 | 4386 ft | 278 kts | 241° |
| 2026-05-01 12:46 | 33.71550 | -84.68740 | 4047 ft | 269 kts | 210° |
| 2026-05-01 12:46 | 33.69785 | -84.69426 | 4011 ft | 260 kts | 183° |
| 2026-05-01 12:46 | 33.67996 | -84.69425 | 3984 ft | 253 kts | 172° |
| 2026-05-01 12:46 | 33.66416 | -84.68755 | 3955 ft | 228 kts | 142° |
| 2026-05-01 12:47 | 33.65174 | -84.67676 | 3995 ft | 214 kts | 133° |
| 2026-05-01 12:47 | 33.64562 | -84.66180 | 4023 ft | 194 kts | 87° |
| 2026-05-01 12:47 | 33.64701 | -84.64567 | 4119 ft | 197 kts | 81° |
| 2026-05-01 12:47 | 33.64812 | -84.62897 | 3997 ft | 202 kts | 85° |
| 2026-05-01 12:48 | 33.64870 | -84.61263 | 3893 ft | 191 kts | 85° |
| 2026-05-01 12:48 | 33.64907 | -84.59683 | 3616 ft | 186 kts | 86° |
| 2026-05-01 12:48 | 33.64928 | -84.58167 | 3370 ft | 181 kts | 87° |
| 2026-05-01 12:48 | 33.64941 | -84.56671 | 3126 ft | 178 kts | 87° |
| 2026-05-01 12:49 | 33.64948 | -84.55179 | 2892 ft | 181 kts | 88° |
| 2026-05-01 12:49 | 33.64953 | -84.53651 | 2643 ft | 179 kts | 88° |
| 2026-05-01 12:49 | 33.64953 | -84.52222 | 2380 ft | 166 kts | 89° |
| 2026-05-01 12:49 | 33.64955 | -84.50867 | 2165 ft | 162 kts | 89° |
| 2026-05-01 12:50 | 33.64956 | -84.49508 | 1963 ft | 158 kts | 89° |
| 2026-05-01 12:50 | 33.64957 | -84.48263 | 1767 ft | 142 kts | 89° |
| 2026-05-01 12:50 | 33.64962 | -84.47103 | 1535 ft | 139 kts | 88° |
| 2026-05-01 12:50 | 33.64972 | -84.45940 | 1400 ft | 142 kts | 89° |
| 2026-05-01 12:51 | 33.64965 | -84.44711 | 1253 ft | 146 kts | 90° |
| 2026-05-01 12:51 | 33.64950 | -84.43545 | 1040 ft | 133 kts | 87° |
| 2026-05-01 12:51 | 33.64952 | -84.42407 | 1019 ft | 14 kts | 93° |
| 2026-05-01 12:52 | 33.64913 | -84.42341 | 1019 ft | 9 kts | 161° |
| 2026-05-01 12:52 | 33.64795 | -84.42384 | 1019 ft | 8 kts | 250° |
| 2026-05-01 12:52 | 33.64789 | -84.42466 | 1020 ft | 11 kts | 270° |
| 2026-05-01 12:53 | 33.64790 | -84.42803 | 1022 ft | 29 kts | 269° |
| 2026-05-01 12:53 | 33.64790 | -84.43058 | 1025 ft | 30 kts | 270° |
| 2026-05-01 12:53 | 33.64791 | -84.43246 | 1027 ft | 16 kts | 275° |
| 2026-05-01 12:54 | 33.64830 | -84.43381 | 1028 ft | 18 kts | 290° |
| 2026-05-01 12:54 | 33.64844 | -84.43683 | 1033 ft | 24 kts | 270° |
| 2026-05-01 12:54 | 33.64833 | -84.43847 | 1036 ft | 17 kts | 254° |
| 2026-05-01 12:55 | 33.64784 | -84.44042 | 1037 ft | 18 kts | 270° |
| 2026-05-01 12:55 | 33.64783 | -84.44224 | 1033 ft | 15 kts | 266° |
| 2026-05-01 12:55 | 33.64743 | -84.44309 | 1031 ft | 13 kts | 215° |
| 2026-05-01 12:56 | 33.64648 | -84.44327 | 1031 ft | 15 kts | 165° |
| 2026-05-01 12:56 | 33.64578 | -84.44258 | 1033 ft | 13 kts | 113° |
| 2026-05-01 12:56 | 33.64562 | -84.44154 | 1030 ft | 14 kts | 107° |
| 2026-05-01 12:56 | 33.64510 | -84.44067 | 1028 ft | 12 kts | 146° |
| 2026-05-01 12:57 | 33.64426 | -84.44051 | 1028 ft | 12 kts | 180° |
| 2026-05-01 12:57 | 33.64214 | -84.44050 | 1028 ft | 15 kts | 178° |
| 2026-05-01 12:57 | 33.64111 | -84.44051 | 1028 ft | 13 kts | 180° |
| 2026-05-01 12:58 | 33.64060 | -84.44051 | 1028 ft | 6 kts | 180° |
| 2026-05-01 12:58 | 33.64003 | -84.44051 | 1028 ft | 9 kts | 180° |
| 2026-05-01 12:58 | 33.63957 | -84.44033 | 1028 ft | 5 kts | 128° |
| 2026-05-01 12:59 | 33.63950 | -84.43979 | 1028 ft | 0 kts | 91° |